
Distance (Route):
Temperature : -7.7°C
Humidity : 0%
Pressure : 585.2hPa| Receiver | Date | Latitude | Longitude | Direction | Speed | Altitude | Climb | Temperature | Humidity | Pressure | Voltage | Killtimer | Uptime | BKT | XDATA |
|---|---|---|---|---|---|---|---|---|---|---|---|---|---|---|---|
| SP4MAZ | 2026-09-05 01:15:53 | 52.42282 | 23.21746 | 104° | 126km/h | 4448m | -15.0m/s | -7.7°C | 0% | 585.2hPa | 0V | 00:00:00 | 00:00:00 | 00:00:00 | |
| SP4MAZ | 2026-09-05 01:15:32 | 52.42456 | 23.20618 | 100° | 150km/h | 4717m | -14.4m/s | -7.5°C | 0% | 565.5hPa | 0V | 00:00:00 | 00:00:00 | 00:00:00 | |
| SP4MAZ | 2026-09-05 01:15:11 | 52.42557 | 23.19238 | 95° | 157km/h | 4990m | -14.3m/s | -7.9°C | 0% | 545.7hPa | 0V | 00:00:00 | 00:00:00 | 00:00:00 | |
| SP4MAZ | 2026-09-05 01:14:48 | 52.42838 | 23.18065 | 0° | 0km/h | 5776m | 0.0m/s | -9.4°C | 0% | 525.4hPa | 0V | 00:00:00 | 00:00:00 | 00:00:00 | |
| SP4MAZ | 2026-09-05 01:14:23 | 52.40881 | 22.69882 | 0° | 0km/h | 28023m | 0.0m/s | -11.1°C | 0% | 503.7hPa | 0V | 00:00:00 | 00:00:00 | 00:00:00 | |
| SP4MAZ | 2026-09-05 01:13:56 | 52.40881 | 22.69882 | 0° | 0km/h | 28023m | 0.0m/s | -13.8°C | 0% | 479.8hPa | 0V | 00:00:00 | 00:00:00 | 00:00:00 | |
| SP4MAZ | 2026-09-05 01:13:35 | 52.40881 | 22.69882 | 0° | 0km/h | 28023m | 0.0m/s | -15.3°C | 76.4% | 460.3hPa | 0V | 00:00:00 | 00:00:00 | 00:00:00 | |
| SP4MAZ | 2026-09-05 01:13:07 | 52.40881 | 22.69882 | 0° | 0km/h | 28023m | 0.0m/s | -18.2°C | 76.8% | 436.6hPa | 0V | 00:00:00 | 00:00:00 | 00:00:00 | |
| SP4MAZ | 2026-09-05 01:12:34 | 52.40881 | 22.69882 | 0° | 0km/h | 28023m | 0.0m/s | -21.4°C | 58.5% | 407.1hPa | 0V | 00:00:00 | 00:00:00 | 00:00:00 | |
| SP4MAZ | 2026-09-05 01:12:11 | 52.40881 | 22.69882 | 0° | 0km/h | 28023m | 0.0m/s | -23.8°C | 65.5% | 388.7hPa | 0V | 00:00:00 | 00:00:00 | 00:00:00 | |
| SP4MAZ | 2026-09-05 01:11:50 | 52.40881 | 22.69882 | 0° | 0km/h | 28023m | 0.0m/s | -26.0°C | 63.1% | 371.5hPa | 0V | 00:00:00 | 00:00:00 | 00:00:00 | |
| SP4MAZ | 2026-09-05 01:11:29 | 52.40881 | 22.69882 | 0° | 0km/h | 28023m | 0.0m/s | -27.5°C | 51.7% | 354.9hPa | 0V | 00:00:00 | 00:00:00 | 00:00:00 | |
| SP4MAZ | 2026-09-05 01:11:08 | 52.40881 | 22.69882 | 0° | 0km/h | 28023m | 0.0m/s | -29.6°C | 51.8% | 338.5hPa | 0V | 00:00:00 | 00:00:00 | 00:00:00 | |
| SP4MAZ | 2026-09-05 01:10:47 | 52.40881 | 22.69882 | 0° | 0km/h | 28023m | 0.0m/s | -32.5°C | 54.2% | 322.2hPa | 0V | 00:00:00 | 00:00:00 | 00:00:00 | |
| SP4MAZ | 2026-09-05 01:10:25 | 52.40881 | 22.69882 | 0° | 0km/h | 28023m | 0.0m/s | -35.8°C | 75.0% | 304.8hPa | 0V | 00:00:00 | 00:00:00 | 00:00:00 | |
| SP4MAZ | 2026-09-05 01:10:03 | 52.40881 | 22.69882 | 0° | 0km/h | 28023m | 0.0m/s | -39.0°C | 70.1% | 288.5hPa | 0V | 00:00:00 | 00:00:00 | 00:00:00 | |
| SP4MAZ | 2026-09-05 01:09:41 | 52.40881 | 22.69882 | 0° | 0km/h | 28023m | 0.0m/s | -42.5°C | 65.2% | 272.6hPa | 0V | 00:00:00 | 00:00:00 | 00:00:00 | |
| SP4MAZ | 2026-09-05 01:09:21 | 52.40881 | 22.69882 | 0° | 0km/h | 28023m | 0.0m/s | -45.5°C | 59.0% | 258.6hPa | 0V | 00:00:00 | 00:00:00 | 00:00:00 | |
| SP4MAZ | 2026-09-05 01:09:00 | 52.40881 | 22.69882 | 0° | 0km/h | 28023m | 0.0m/s | -48.5°C | 61.4% | 244.4hPa | 0V | 00:00:00 | 00:00:00 | 00:00:00 | |
| SP4MAZ | 2026-09-05 01:08:39 | 52.40881 | 22.69882 | 0° | 0km/h | 28023m | 0.0m/s | -52.1°C | 66.7% | 230.3hPa | 0V | 00:00:00 | 00:00:00 | 00:00:00 | |
| SP4MAZ | 2026-09-05 01:08:19 | 52.40881 | 22.69882 | 0° | 0km/h | 28023m | 0.0m/s | -55.6°C | 55.2% | 216.6hPa | 0V | 00:00:00 | 00:00:00 | 00:00:00 | |
| SP4MAZ | 2026-09-05 01:07:56 | 52.40881 | 22.69882 | 0° | 0km/h | 28023m | 0.0m/s | -58.7°C | 39.6% | 202.6hPa | 0V | 00:00:00 | 00:00:00 | 00:00:00 | |
| SP4MAZ | 2026-09-05 01:07:34 | 52.40881 | 22.69882 | 0° | 0km/h | 28023m | 0.0m/s | -61.5°C | 24.1% | 189.3hPa | 0V | 00:00:00 | 00:00:00 | 00:00:00 | |
| SP4MAZ | 2026-09-05 01:07:13 | 52.40881 | 22.69882 | 0° | 0km/h | 28023m | 0.0m/s | -61.2°C | 11.4% | 177.1hPa | 0V | 00:00:00 | 00:00:00 | 00:00:00 | |
| SP4MAZ | 2026-09-05 01:06:52 | 52.40881 | 22.69882 | 0° | 0km/h | 28023m | 0.0m/s | -57.4°C | 3.8% | 165.7hPa | 0V | 00:00:00 | 00:00:00 | 00:00:00 | |
| SP4MAZ | 2026-09-05 01:06:31 | 52.40881 | 22.69882 | 0° | 0km/h | 28023m | 0.0m/s | -55.8°C | 2.4% | 154.3hPa | 0V | 00:00:00 | 00:00:00 | 00:00:00 | |
| SP4MAZ | 2026-09-05 01:06:09 | 52.40881 | 22.69882 | 0° | 0km/h | 28023m | 0.0m/s | -53.9°C | 1.8% | 142.8hPa | 0V | 00:00:00 | 00:00:00 | 00:00:00 | |
| SP4MAZ | 2026-09-05 01:05:48 | 52.40881 | 22.69882 | 0° | 0km/h | 28023m | 0.0m/s | -54.8°C | 1.8% | 132.4hPa | 0V | 00:00:00 | 00:00:00 | 00:00:00 | |
| SP4MAZ | 2026-09-05 01:05:27 | 52.40881 | 22.69882 | 0° | 0km/h | 28023m | 0.0m/s | -52.5°C | 1.4% | 122.5hPa | 0V | 00:00:00 | 00:00:00 | 00:00:00 | |
| SP4MAZ | 2026-09-05 01:05:06 | 52.40881 | 22.69882 | 0° | 0km/h | 28023m | 0.0m/s | -52.9°C | 1.3% | 113.0hPa | 0V | 00:00:00 | 00:00:00 | 00:00:00 | |
| SP4MAZ | 2026-09-05 01:04:45 | 52.40881 | 22.69882 | 0° | 0km/h | 28023m | 0.0m/s | -53.5°C | 1.3% | 103.7hPa | 0V | 00:00:00 | 00:00:00 | 00:00:00 | |
| SP4MAZ | 2026-09-05 01:04:25 | 52.40881 | 22.69882 | 0° | 0km/h | 28023m | 0.0m/s | -53.8°C | 1.3% | 95.3hPa | 0V | 00:00:00 | 00:00:00 | 00:00:00 | |
| SP4MAZ | 2026-09-05 01:04:03 | 52.40881 | 22.69882 | 0° | 0km/h | 28023m | 0.0m/s | -53.2°C | 1.2% | 86.5hPa | 0V | 00:00:00 | 00:00:00 | 00:00:00 | |
| SP4MAZ | 2026-09-05 01:03:42 | 52.40881 | 22.69882 | 0° | 0km/h | 28023m | 0.0m/s | -53.9°C | 1.3% | 78.5hPa | 0V | 00:00:00 | 00:00:00 | 00:00:00 | |
| SP4MAZ | 2026-09-05 01:03:20 | 52.40881 | 22.69882 | 0° | 0km/h | 28023m | 0.0m/s | -51.9°C | 1.1% | 70.7hPa | 0V | 00:00:00 | 00:00:00 | 00:00:00 | |
| SP4MAZ | 2026-09-05 01:02:58 | 52.40881 | 22.69882 | 0° | 0km/h | 28023m | 0.0m/s | -51.6°C | 1.0% | 63.3hPa | 0V | 00:00:00 | 00:00:00 | 00:00:00 | |
| SP4MAZ | 2026-09-05 01:02:37 | 52.40881 | 22.69882 | 0° | 0km/h | 28023m | 0.0m/s | -52.1°C | 1.0% | 56.6hPa | 0V | 00:00:00 | 00:00:00 | 00:00:00 | |
| SP4MAZ | 2026-09-05 01:02:15 | 52.40881 | 22.69882 | 0° | 0km/h | 28023m | 0.0m/s | -51.4°C | 1.0% | 49.9hPa | 0V | 00:00:00 | 00:00:00 | 00:00:00 | |
| SP4MAZ | 2026-09-05 01:01:53 | 52.40881 | 22.69882 | 0° | 0km/h | 28023m | 0.0m/s | -51.9°C | 1.0% | 43.8hPa | 0V | 00:00:00 | 00:00:00 | 00:00:00 | |
| SP4MAZ | 2026-09-05 01:01:32 | 52.40881 | 22.69882 | 0° | 0km/h | 28023m | 0.0m/s | -52.4°C | 1.0% | 38.3hPa | 0V | 00:00:00 | 00:00:00 | 00:00:00 | |
| SP4MAZ | 2026-09-05 01:01:12 | 52.40881 | 22.69882 | 0° | 0km/h | 28023m | 0.0m/s | -52.3°C | 1.0% | 33.3hPa | 0V | 00:00:00 | 00:00:00 | 00:00:00 | |
| SP4MAZ | 2026-09-05 01:00:51 | 52.40881 | 22.69882 | 0° | 0km/h | 28023m | 0.0m/s | -50.2°C | 0.9% | 28.6hPa | 0V | 00:00:00 | 00:00:00 | 00:00:00 | |
| SP4MAZ | 2026-09-05 01:00:30 | 52.40881 | 22.69882 | 0° | 0km/h | 28023m | 0.0m/s | -49.8°C | 0.9% | 24.2hPa | 0V | 00:00:00 | 00:00:00 | 00:00:00 | |
| SP4MAZ | 2026-09-05 01:00:10 | 52.40881 | 22.69882 | 0° | 0km/h | 28023m | 0.0m/s | -48.1°C | 0.8% | 20.4hPa | 0V | 00:00:00 | 00:00:00 | 00:00:00 | |
| SP4MAZ | 2026-09-05 00:59:49 | 52.40881 | 22.69882 | 0° | 0km/h | 28023m | 0.0m/s | -48.1°C | 0.9% | 16.7hPa | 0V | 00:00:00 | 00:00:00 | 00:00:00 | |
| SP4MAZ | 2026-09-05 00:59:28 | 52.40881 | 22.69882 | 0° | 0km/h | 28023m | 0.0m/s | -43.7°C | 0.6% | 13.5hPa | 0V | 00:00:00 | 00:00:00 | 00:00:00 | |
| SP4MAZ | 2026-09-05 00:59:07 | 52.40881 | 22.69882 | 0° | 0km/h | 28023m | 0.0m/s | -39.2°C | 0.5% | 10.6hPa | 0V | 00:00:00 | 00:00:00 | 00:00:00 | |
| SP4MAZ | 2026-09-05 00:58:46 | 52.40881 | 22.69882 | 0° | 0km/h | 28023m | 0.0m/s | -35.9°C | 0.4% | 8.2hPa | 0V | 00:00:00 | 00:00:00 | 00:00:00 | |
| SP4MAZ | 2026-09-05 00:58:25 | 52.40881 | 22.69882 | 0° | 0km/h | 28023m | 0.0m/s | -34.5°C | 0.3% | 6.3hPa | 0V | 00:00:00 | 00:00:00 | 00:00:00 | |
| SP4MAZ | 2026-09-05 00:58:05 | 52.40881 | 22.69882 | 0° | 0km/h | 28023m | 0.0m/s | -35.7°C | 0.4% | 5.9hPa | 0V | 00:00:00 | 00:00:00 | 00:00:00 | |
| SP4MAZ | 2026-09-05 00:57:43 | 52.40881 | 22.69882 | 0° | 0km/h | 28023m | 0.0m/s | -36.3°C | 0.4% | 6.0hPa | 0V | 00:00:00 | 00:00:00 | 00:00:00 | |
| SP4MAZ | 2026-09-05 00:57:23 | 52.40881 | 22.69882 | 0° | 0km/h | 28023m | 0.0m/s | -35.9°C | 0.4% | 6.1hPa | 0V | 00:00:00 | 00:00:00 | 00:00:00 | |
| SP4MAZ | 2026-09-05 00:57:01 | 52.40881 | 22.69882 | 0° | 0km/h | 28023m | 0.0m/s | -36.2°C | 0.4% | 6.3hPa | 0V | 00:00:00 | 00:00:00 | 00:00:00 | |
| SP4MAZ | 2026-09-05 00:56:40 | 52.40881 | 22.69882 | 0° | 0km/h | 28023m | 0.0m/s | -36.5°C | 0.4% | 6.4hPa | 0V | 00:00:00 | 00:00:00 | 00:00:00 | |
| SP4MAZ | 2026-09-05 00:56:19 | 52.40881 | 22.69882 | 0° | 0km/h | 28023m | 0.0m/s | -37.0°C | 0.4% | 6.5hPa | 0V | 00:00:00 | 00:00:00 | 00:00:00 | |
| SP4MAZ | 2026-09-05 00:55:58 | 52.40881 | 22.69882 | 0° | 0km/h | 28023m | 0.0m/s | -38.0°C | 0.4% | 6.7hPa | 0V | 00:00:00 | 00:00:00 | 00:00:00 | |
| SP4MAZ | 2026-09-05 00:55:38 | 52.40881 | 22.69882 | 0° | 0km/h | 28023m | 0.0m/s | -38.3°C | 0.4% | 6.8hPa | 0V | 00:00:00 | 00:00:00 | 00:00:00 | |
| SP4MAZ | 2026-09-05 00:55:17 | 52.40881 | 22.69882 | 0° | 0km/h | 28023m | 0.0m/s | -38.3°C | 0.4% | 7.0hPa | 0V | 00:00:00 | 00:00:00 | 00:00:00 | |
| SP4MAZ | 2026-09-05 00:54:57 | 52.40881 | 22.69882 | 0° | 0km/h | 28023m | 0.0m/s | -38.3°C | 0.4% | 7.1hPa | 0V | 00:00:00 | 00:00:00 | 00:00:00 | |
| SP4MAZ | 2026-09-05 00:54:36 | 52.40881 | 22.69882 | 0° | 0km/h | 28023m | 0.0m/s | -38.3°C | 0.4% | 7.3hPa | 0V | 00:00:00 | 00:00:00 | 00:00:00 | |
| SP4MAZ | 2026-09-05 00:54:15 | 52.40881 | 22.69882 | 0° | 0km/h | 28023m | 0.0m/s | -38.5°C | 0.4% | 7.4hPa | 0V | 00:00:00 | 00:00:00 | 00:00:00 | |
| SP4MAZ | 2026-09-05 00:53:55 | 52.40881 | 22.69882 | 0° | 0km/h | 28023m | 0.0m/s | -38.8°C | 0.5% | 7.6hPa | 0V | 00:00:00 | 00:00:00 | 00:00:00 | |
| SP4MAZ | 2026-09-05 00:53:33 | 52.40881 | 22.69882 | 0° | 0km/h | 28023m | 0.0m/s | -39.0°C | 0.5% | 7.8hPa | 0V | 00:00:00 | 00:00:00 | 00:00:00 | |
| SP4MAZ | 2026-09-05 00:53:11 | 52.40881 | 22.69882 | 0° | 0km/h | 28023m | 0.0m/s | -38.9°C | 0.5% | 8.0hPa | 0V | 00:00:00 | 00:00:00 | 00:00:00 | |
| SP4MAZ | 2026-09-05 00:52:51 | 52.40881 | 22.69882 | 0° | 0km/h | 28023m | 0.0m/s | -39.7°C | 0.5% | 8.1hPa | 0V | 00:00:00 | 00:00:00 | 00:00:00 | |
| SP4MAZ | 2026-09-05 00:52:29 | 52.40881 | 22.69882 | 0° | 0km/h | 28023m | 0.0m/s | -40.1°C | 0.5% | 8.3hPa | 0V | 00:00:00 | 00:00:00 | 00:00:00 | |
| SP4MAZ | 2026-09-05 00:52:08 | 52.40881 | 22.69882 | 0° | 0km/h | 28023m | 0.0m/s | -40.1°C | 0.5% | 8.5hPa | 0V | 00:00:00 | 00:00:00 | 00:00:00 | |
| SQ9PSP-11 | 2026-09-05 00:51:47 | 52.40881 | 22.69882 | 0° | 0km/h | 28023m | 0.0m/s | 0°C | 0% | 8.7hPa | 0V | 00:00:00 | 00:00:00 | 00:00:00 | |
| SP4MAZ | 2026-09-05 00:51:25 | 52.40881 | 22.69882 | 0° | 0km/h | 28023m | 0.0m/s | -40.8°C | 0.5% | 8.9hPa | 0V | 00:00:00 | 00:00:00 | 00:00:00 | |
| SP4MAZ | 2026-09-05 00:51:04 | 52.40881 | 22.69882 | 0° | 0km/h | 28023m | 0.0m/s | -41.0°C | 0.5% | 9.0hPa | 0V | 00:00:00 | 00:00:00 | 00:00:00 | |
| SP4MAZ | 2026-09-05 00:50:44 | 52.40881 | 22.69882 | 0° | 0km/h | 28023m | 0.0m/s | -41.4°C | 0.5% | 9.2hPa | 0V | 00:00:00 | 00:00:00 | 00:00:00 | |
| SP4MAZ | 2026-09-05 00:50:24 | 52.40881 | 22.69882 | 0° | 0km/h | 28023m | 0.0m/s | -41.5°C | 0.5% | 9.4hPa | 0V | 00:00:00 | 00:00:00 | 00:00:00 | |
| SP4MAZ | 2026-09-05 00:50:02 | 52.40881 | 22.69882 | 0° | 0km/h | 28023m | 0.0m/s | -41.2°C | 0.5% | 9.7hPa | 0V | 00:00:00 | 00:00:00 | 00:00:00 | |
| SP4MAZ | 2026-09-05 00:49:41 | 52.40881 | 22.69882 | 0° | 0km/h | 28023m | 0.0m/s | -41.8°C | 0.5% | 9.9hPa | 0V | 00:00:00 | 00:00:00 | 00:00:00 | |
| SP4MAZ | 2026-09-05 00:49:21 | 52.40881 | 22.69882 | 0° | 0km/h | 28023m | 0.0m/s | -42.6°C | 0.6% | 10.1hPa | 0V | 00:00:00 | 00:00:00 | 00:00:00 | |
| SP4MAZ | 2026-09-05 00:49:01 | 52.40881 | 22.69882 | 0° | 0km/h | 28023m | 0.0m/s | -43.4°C | 0.6% | 10.3hPa | 0V | 00:00:00 | 00:00:00 | 00:00:00 | |
| SP4MAZ | 2026-09-05 00:48:40 | 52.40881 | 22.69882 | 0° | 0km/h | 28023m | 0.0m/s | -43.5°C | 0.6% | 10.6hPa | 0V | 00:00:00 | 00:00:00 | 00:00:00 | |
| SP4MAZ | 2026-09-05 00:48:15 | 52.40881 | 22.69882 | 0° | 0km/h | 28023m | 0.0m/s | -44.2°C | 0.6% | 10.9hPa | 0V | 00:00:00 | 00:00:00 | 00:00:00 | |
| SP4MAZ | 2026-09-05 00:47:54 | 52.40881 | 22.69882 | 0° | 0km/h | 28023m | 0.0m/s | -45.0°C | 0.6% | 11.1hPa | 0V | 00:00:00 | 00:00:00 | 00:00:00 | |
| SP4MAZ | 2026-09-05 00:47:30 | 52.40881 | 22.69882 | 0° | 0km/h | 28023m | 0.0m/s | -45.5°C | 0.7% | 11.4hPa | 0V | 00:00:00 | 00:00:00 | 00:00:00 | |
| SP4MAZ | 2026-09-05 00:47:10 | 52.40881 | 22.69882 | 0° | 0km/h | 28023m | 0.0m/s | -45.9°C | 0.7% | 11.6hPa | 0V | 00:00:00 | 00:00:00 | 00:00:00 | |
| SQ9PSP-11 | 2026-09-05 00:46:52 | 52.40881 | 22.69882 | 0° | 0km/h | 28023m | 0.0m/s | 0°C | 0% | 0hPa | 0V | 00:00:00 | 00:00:00 | 00:00:00 | |
| SP4MAZ | 2026-09-05 00:46:50 | 52.40881 | 22.69882 | 0° | 0km/h | 28023m | 0.0m/s | -45.9°C | 0.7% | 11.8hPa | 0V | 00:00:00 | 00:00:00 | 00:00:00 | |
| SP4MAZ | 2026-09-05 00:46:28 | 52.40881 | 22.69882 | 0° | 0km/h | 28023m | 0.0m/s | -46.4°C | 0.7% | 12.1hPa | 0V | 00:00:00 | 00:00:00 | 00:00:00 | |
| SP4MAZ | 2026-09-05 00:46:06 | 52.40881 | 22.69882 | 0° | 0km/h | 28023m | 0.0m/s | -47.0°C | 0.7% | 12.4hPa | 0V | 00:00:00 | 00:00:00 | 00:00:00 | |
| SQ9PSP-11 | 2026-09-05 00:46:01 | 52.40881 | 22.69882 | 0° | 0km/h | 28023m | 0.0m/s | 0°C | 0% | 0hPa | 0V | 00:00:00 | 00:00:00 | 00:00:00 | |
| SP4MAZ | 2026-09-05 00:45:42 | 52.38951 | 22.70675 | 0° | 0km/h | 33339m | 0.0m/s | -46.9°C | 0.7% | 12.7hPa | 0V | 00:00:00 | 00:00:00 | 00:00:00 | |
| SP4MAZ | 2026-09-05 00:45:21 | 52.38951 | 22.70675 | 0° | 0km/h | 33339m | 0.0m/s | -47.8°C | 0.8% | 13.0hPa | 0V | 00:00:00 | 00:00:00 | 00:00:00 | |
| SP4MAZ | 2026-09-05 00:45:00 | 52.38951 | 22.70675 | 0° | 0km/h | 33339m | 0.0m/s | -48.0°C | 0.8% | 13.3hPa | 0V | 00:00:00 | 00:00:00 | 00:00:00 | |
| SP4MAZ | 2026-09-05 00:44:06 | 52.38951 | 22.70675 | 0° | 0km/h | 33339m | 0.0m/s | -47.0°C | 0.8% | 14.0hPa | 0V | 00:00:00 | 00:00:00 | 00:00:00 | |
| SP4MAZ | 2026-09-05 00:43:44 | 52.40881 | 22.69882 | 0° | 0km/h | 28023m | 0.0m/s | -46.6°C | 0.7% | 14.3hPa | 0V | 00:00:00 | 00:00:00 | 00:00:00 | |
| SQ9PSP-11 | 2026-09-05 00:43:25 | 52.40863 | 22.69049 | 356° | 5km/h | 27182m | 4.0m/s | 0°C | 0% | 0hPa | 0V | 00:00:00 | 00:00:00 | 00:00:00 | |
| SP4MAZ | 2026-09-05 00:43:24 | 52.40881 | 22.69882 | 0° | 0km/h | 28023m | 0.0m/s | -46.6°C | 0.7% | 14.6hPa | 0V | 00:00:00 | 00:00:00 | 00:00:00 | |
| SP4MAZ | 2026-09-05 00:43:03 | 52.40881 | 22.69882 | 0° | 0km/h | 28023m | 0.0m/s | -46.6°C | 0.7% | 14.9hPa | 0V | 00:00:00 | 00:00:00 | 00:00:00 | |
| SQ9PSP-11 | 2026-09-05 00:42:50 | 52.40863 | 22.69049 | 356° | 5km/h | 27182m | 4.0m/s | 0°C | 0% | 0hPa | 0V | 00:00:00 | 00:00:00 | 00:00:00 | |
| SP4MAZ | 2026-09-05 00:42:36 | 52.38951 | 22.70675 | 0° | 0km/h | 33339m | 0.0m/s | -47.6°C | 0.8% | 15.3hPa | 0V | 00:00:00 | 00:00:00 | 00:00:00 | |
| SQ9PSP-11 | 2026-09-05 00:42:35 | 52.40863 | 22.69049 | 356° | 5km/h | 27182m | 4.0m/s | 0°C | 0% | 0hPa | 0V | 00:00:00 | 00:00:00 | 00:00:00 | |
| SP4MAZ | 2026-09-05 00:42:16 | 52.38951 | 22.70675 | 0° | 0km/h | 33339m | 0.0m/s | -48.0°C | 0.8% | 15.6hPa | 0V | 00:00:00 | 00:00:00 | 00:00:00 | |
| SQ9PSP-11 | 2026-09-05 00:41:56 | 52.40863 | 22.69049 | 356° | 5km/h | 27182m | 4.0m/s | 0°C | 0% | 0hPa | 0V | 00:00:00 | 00:00:00 | 00:00:00 | |
| SP4MAZ | 2026-09-05 00:41:55 | 52.32674 | 22.75338 | 152° | 308km/h | 36950m | 94.2m/s | -48.0°C | 0.8% | 15.9hPa | 0V | 00:00:00 | 00:00:00 | 00:00:00 | |
| SP4MAZ | 2026-09-05 00:41:34 | 52.32674 | 22.75338 | 152° | 308km/h | 36950m | 94.2m/s | -47.7°C | 0.8% | 16.2hPa | 0V | 00:00:00 | 00:00:00 | 00:00:00 | |
| SQ9PSP-11 | 2026-09-05 00:41:23 | 52.40863 | 22.69049 | 356° | 5km/h | 27182m | 4.0m/s | 0°C | 0% | 0hPa | 0V | 00:00:00 | 00:00:00 | 00:00:00 | |
| SP4MAZ | 2026-09-05 00:40:59 | 52.32674 | 22.75338 | 152° | 308km/h | 36950m | 94.2m/s | -48.5°C | 0.8% | 16.8hPa | 0V | 00:00:00 | 00:00:00 | 00:00:00 | |
| SP4MAZ | 2026-09-05 00:40:38 | 52.32674 | 22.75338 | 152° | 308km/h | 36950m | 94.2m/s | -48.6°C | 0.8% | 17.1hPa | 0V | 00:00:00 | 00:00:00 | 00:00:00 | |
| SQ9PSP-11 | 2026-09-05 00:40:37 | 52.40863 | 22.69049 | 356° | 5km/h | 27182m | 4.0m/s | 0°C | 0% | 0hPa | 0V | 00:00:00 | 00:00:00 | 00:00:00 | |
| SP4MAZ | 2026-09-05 00:40:17 | 52.32674 | 22.75338 | 152° | 308km/h | 36950m | 94.2m/s | -48.3°C | 0.8% | 17.4hPa | 0V | 00:00:00 | 00:00:00 | 00:00:00 | |
| SQ9PSP-11 | 2026-09-05 00:39:59 | 52.40863 | 22.69049 | 356° | 5km/h | 27182m | 4.0m/s | 0°C | 0% | 0hPa | 0V | 00:00:00 | 00:00:00 | 00:00:00 | |
| SP4MAZ | 2026-09-05 00:39:54 | 52.32674 | 22.75338 | 152° | 308km/h | 36950m | 94.2m/s | -48.1°C | 0.8% | 17.9hPa | 0V | 00:00:00 | 00:00:00 | 00:00:00 | |
| SP4MAZ | 2026-09-05 00:39:34 | 52.32674 | 22.75338 | 152° | 308km/h | 36950m | 94.2m/s | -48.9°C | 0.8% | 18.2hPa | 0V | 00:00:00 | 00:00:00 | 00:00:00 | |
| SQ9PSP-11 | 2026-09-05 00:39:25 | 52.40863 | 22.69049 | 356° | 5km/h | 27182m | 4.0m/s | 0°C | 0% | 0hPa | 0V | 00:00:00 | 00:00:00 | 00:00:00 | |
| SP4MAZ | 2026-09-05 00:39:13 | 52.32674 | 22.75338 | 152° | 308km/h | 36950m | 94.2m/s | -49.2°C | 0.8% | 18.7hPa | 0V | 00:00:00 | 00:00:00 | 00:00:00 | |
| SQ9PSP-11 | 2026-09-05 00:38:44 | 52.40863 | 22.69049 | 356° | 5km/h | 27182m | 4.0m/s | 0°C | 0% | 0hPa | 0V | 00:00:00 | 00:00:00 | 00:00:00 | |
| SQ9PSP-11 | 2026-09-05 00:38:28 | 52.32674 | 22.75338 | 152° | 308km/h | 36950m | 94.2m/s | 0°C | 0% | 0hPa | 0V | 00:00:00 | 00:00:00 | 00:00:00 | |
| SP4MAZ | 2026-09-05 00:38:23 | 52.32265 | 22.75724 | 150° | 310km/h | 37521m | 94.7m/s | -49.5°C | 0.9% | 19.6hPa | 0V | 00:00:00 | 00:00:00 | 00:00:00 | |
| SQ9PSP-11 | 2026-09-05 00:38:10 | 52.33121 | 22.74923 | 151° | 299km/h | 36291m | 95.3m/s | 0°C | 0% | 0hPa | 0V | 00:00:00 | 00:00:00 | 00:00:00 | |
| SP4MAZ | 2026-09-05 00:38:03 | 52.33585 | 22.74478 | 152° | 330km/h | 35661m | 99.4m/s | -49.7°C | 0.9% | 20.0hPa | 0V | 00:00:00 | 00:00:00 | 00:00:00 | |
| SP3WXH-11 | 2026-09-05 00:37:47 | 52.34758 | 22.73427 | 155° | 411km/h | 34035m | 114.3m/s | -50.0°C | 0.9% | 20.4hPa | 0V | 00:00:00 | 00:00:00 | 00:00:00 | |
| SP4MAZ | 2026-09-05 00:37:41 | 52.35180 | 22.73081 | 155° | 475km/h | 33514m | 122.0m/s | -50.0°C | 0.9% | 20.5hPa | 0V | 00:00:00 | 00:00:00 | 00:00:00 | |
| SQ9PSP-11 | 2026-09-05 00:37:34 | 52.35875 | 22.72547 | 158° | 515km/h | 32713m | 131.6m/s | 0°C | 0% | 0hPa | 0V | 00:00:00 | 00:00:00 | 00:00:00 | |
| SP4MAZ | 2026-09-05 00:37:18 | 52.38738 | 22.70734 | 155° | 402km/h | 30238m | 110.5m/s | -50.1°C | 0.9% | 20.9hPa | 0V | 00:00:00 | 00:00:00 | 00:00:00 | |
| SP3WXH-11 | 2026-09-05 00:37:16 | 52.39111 | 22.70476 | 154° | 307km/h | 29849m | 107.1m/s | -50.2°C | 0.9% | 21.0hPa | 0V | 00:00:00 | 00:00:00 | 00:00:00 | |
| SQ9PSP-11 | 2026-09-05 00:37:09 | 52.39982 | 22.70198 | 141° | 208km/h | 28696m | 75.9m/s | 0°C | 0% | 0hPa | 0V | 00:00:00 | 00:00:00 | 00:00:00 | |
| SP4MAZ | 2026-09-05 00:36:58 | 52.40652 | 22.69429 | 103° | 268km/h | 27820m | -7.3m/s | -50.4°C | 0.9% | 21.4hPa | 0V | 00:00:00 | 00:00:00 | 00:00:00 | |
| SQ9PSP-11 | 2026-09-05 00:36:52 | 52.40827 | 22.69010 | 150° | 37km/h | 27501m | 74.8m/s | 0°C | 0% | 0hPa | 0V | 00:00:00 | 00:00:00 | 00:00:00 | |
| SP3WXH-11 | 2026-09-05 00:36:45 | 52.40713 | 22.68517 | 189° | 131km/h | 26408m | 8.6m/s | -50.5°C | 0.9% | 21.7hPa | 0V | 00:00:00 | 00:00:00 | 00:00:00 | |
| SQ9PSP-11 | 2026-09-05 00:36:36 | 52.40772 | 22.68553 | 114° | 11km/h | 26363m | 5.4m/s | 0°C | 0% | 0hPa | 0V | 00:00:00 | 00:00:00 | 00:00:00 | |
| SP4MAZ | 2026-09-05 00:36:26 | 52.40788 | 22.68529 | 134° | 5km/h | 26306m | 6.9m/s | -50.4°C | 0.9% | 22.0hPa | 0V | 00:00:00 | 00:00:00 | 00:00:00 | |
| SQ9PSP-11 | 2026-09-05 00:36:18 | 52.40799 | 22.68506 | 114° | 15km/h | 26243m | 6.6m/s | 0°C | 0% | 0hPa | 0V | 00:00:00 | 00:00:00 | 00:00:00 | |
| SP3WXH-11 | 2026-09-05 00:36:14 | 52.40818 | 22.68477 | 127° | 9km/h | 26207m | 4.0m/s | -50.3°C | 0.9% | 22.3hPa | 0V | 00:00:00 | 00:00:00 | 00:00:00 | |
| SP4MAZ | 2026-09-05 00:36:06 | 52.40822 | 22.68460 | 126° | 5km/h | 26176m | 7.4m/s | -50.3°C | 0.9% | 22.4hPa | 0V | 00:00:00 | 00:00:00 | 00:00:00 | |
| SQ9PSP-11 | 2026-09-05 00:36:00 | 52.40832 | 22.68442 | 142° | 16km/h | 26131m | 8.0m/s | 0°C | 0% | 0hPa | 0V | 00:00:00 | 00:00:00 | 00:00:00 | |
| SP3WXH-11 | 2026-09-05 00:35:43 | 52.40889 | 22.68318 | 94° | 24km/h | 26017m | 6.5m/s | -50.6°C | 0.9% | 23.0hPa | 0V | 00:00:00 | 00:00:00 | 00:00:00 | |
| SQ9PSP-11 | 2026-09-05 00:35:41 | 52.40888 | 22.68318 | 96° | 24km/h | 26018m | 6.5m/s | 0°C | 0% | 0hPa | 0V | 00:00:00 | 00:00:00 | 00:00:00 | |
| SQ9PSP-11 | 2026-09-05 00:35:25 | 52.40890 | 22.68236 | 22° | 9km/h | 25904m | 8.3m/s | 0°C | 0% | 0hPa | 0V | 00:00:00 | 00:00:00 | 00:00:00 | |
| SP4MAZ | 2026-09-05 00:35:23 | 52.40887 | 22.68237 | 56° | 5km/h | 25889m | 7.5m/s | -51.1°C | 1.0% | 23.4hPa | 0V | 00:00:00 | 00:00:00 | 00:00:00 | |
| SP3WXH-11 | 2026-09-05 00:35:12 | 52.40890 | 22.68191 | 193° | 7km/h | 25760m | 6.2m/s | -51.0°C | 1.0% | 23.7hPa | 0V | 00:00:00 | 00:00:00 | 00:00:00 | |
| SQ9PSP-11 | 2026-09-05 00:35:02 | 52.40899 | 22.68164 | 133° | 2km/h | 25661m | 5.4m/s | 0°C | 0% | 0hPa | 0V | 00:00:00 | 00:00:00 | 00:00:00 | |
| SQ9PSP-11 | 2026-09-05 00:34:46 | 52.40933 | 22.68070 | 122° | 11km/h | 25357m | 15.3m/s | 0°C | 0% | 0hPa | 0V | 00:00:00 | 00:00:00 | 00:00:00 | |
| SP3WXH-11 | 2026-09-05 00:34:41 | 52.40942 | 22.68006 | 249° | 37km/h | 25181m | -20.9m/s | -50.6°C | 0.9% | 24.4hPa | 0V | 00:00:00 | 00:00:00 | 00:00:00 | |
| SP4MAZ | 2026-09-05 00:34:14 | 52.40888 | 22.68155 | 39° | 9km/h | 25408m | 5.8m/s | -50.2°C | 0.9% | 25.0hPa | 0V | 00:00:00 | 00:00:00 | 00:00:00 | |
| SP3WXH-11 | 2026-09-05 00:34:10 | 52.40891 | 22.68159 | 286° | 13km/h | 25374m | 4.7m/s | -50.0°C | 1.0% | 25.2hPa | 0V | 00:00:00 | 00:00:00 | 00:00:00 | |
| SP4MAZ | 2026-09-05 00:33:54 | 52.40885 | 22.68191 | 280° | 15km/h | 25286m | 7.1m/s | -49.8°C | 0.9% | 25.5hPa | 0V | 00:00:00 | 00:00:00 | 00:00:00 | |
| SP3WXH-11 | 2026-09-05 00:33:39 | 52.40900 | 22.68252 | 228° | 18km/h | 25185m | 5.5m/s | -49.6°C | 0.9% | 25.9hPa | 0V | 00:00:00 | 00:00:00 | 00:00:00 | |
| SP4MAZ | 2026-09-05 00:33:25 | 52.40932 | 22.68290 | 211° | 13km/h | 25108m | 3.2m/s | -49.9°C | 0.9% | 26.2hPa | 0V | 00:00:00 | 00:00:00 | 00:00:00 | |
| SP3WXH-11 | 2026-09-05 00:33:07 | 52.41013 | 22.68330 | 181° | 11km/h | 25000m | 5.5m/s | -50.2°C | 0.9% | 26.6hPa | 0V | 00:00:00 | 00:00:00 | 00:00:00 | |
| SP4MAZ | 2026-09-05 00:33:05 | 52.41018 | 22.68330 | 179° | 18km/h | 24994m | 4.5m/s | -50.2°C | 0.9% | 26.7hPa | 0V | 00:00:00 | 00:00:00 | 00:00:00 | |
| SP4MAZ | 2026-09-05 00:32:42 | 52.41127 | 22.68297 | 151° | 24km/h | 24883m | 4.4m/s | -50.2°C | 0.9% | 27.2hPa | 0V | 00:00:00 | 00:00:00 | 00:00:00 | |
| SP3WXH-11 | 2026-09-05 00:32:36 | 52.41149 | 22.68261 | 127° | 18km/h | 24856m | 6.4m/s | -50.2°C | 0.9% | 27.4hPa | 0V | 00:00:00 | 00:00:00 | 00:00:00 | |
| SP4MAZ | 2026-09-05 00:32:22 | 52.41200 | 22.68203 | 112° | 16km/h | 24775m | 10.9m/s | -50.4°C | 0.9% | 27.7hPa | 0V | 00:00:00 | 00:00:00 | 00:00:00 | |
| SP3WXH-11 | 2026-09-05 00:32:05 | 52.41284 | 22.68072 | 188° | 18km/h | 24587m | 6.1m/s | -50.8°C | 1.0% | 28.1hPa | 0V | 00:00:00 | 00:00:00 | 00:00:00 | |
| SP3WXH-11 | 2026-09-05 00:31:34 | 52.41345 | 22.68001 | 127° | 18km/h | 24482m | 5.2m/s | -51.5°C | 1.0% | 28.9hPa | 0V | 00:00:00 | 00:00:00 | 00:00:00 | |
| SP4MAZ | 2026-09-05 00:31:14 | 52.41386 | 22.67967 | 134° | 26km/h | 24402m | 6.6m/s | -51.9°C | 1.0% | 29.4hPa | 0V | 00:00:00 | 00:00:00 | 00:00:00 | |
| SP3WXH-11 | 2026-09-05 00:31:03 | 52.41460 | 22.67841 | 115° | 11km/h | 24301m | 5.1m/s | -52.0°C | 1.0% | 29.7hPa | 0V | 00:00:00 | 00:00:00 | 00:00:00 | |
| SP4MAZ | 2026-09-05 00:30:51 | 52.41505 | 22.67781 | 116° | 18km/h | 24254m | 5.6m/s | -52.4°C | 1.0% | 30.1hPa | 0V | 00:00:00 | 00:00:00 | 00:00:00 | |
| SP3WXH-11 | 2026-09-05 00:30:32 | 52.41559 | 22.67577 | 97° | 33km/h | 24132m | 5.8m/s | -53.2°C | 1.1% | 30.6hPa | 0V | 00:00:00 | 00:00:00 | 00:00:00 | |
| SP4MAZ | 2026-09-05 00:30:31 | 52.41560 | 22.67577 | 98° | 35km/h | 24132m | 5.8m/s | -53.2°C | 1.1% | 30.6hPa | 0V | 00:00:00 | 00:00:00 | 00:00:00 | |
| SP3WXH-11 | 2026-09-05 00:30:01 | 52.41572 | 22.67210 | 106° | 26km/h | 24033m | -0.2m/s | -53.5°C | 1.1% | 31.5hPa | 0V | 00:00:00 | 00:00:00 | 00:00:00 | |
| SP4MAZ | 2026-09-05 00:29:43 | 52.41565 | 22.67056 | 56° | 31km/h | 24035m | 10.3m/s | -53.3°C | 1.1% | 32.1hPa | 0V | 00:00:00 | 00:00:00 | 00:00:00 | |
| SP3WXH-11 | 2026-09-05 00:29:30 | 52.41560 | 22.66908 | 74° | 24km/h | 23886m | 11.5m/s | -53.4°C | 1.1% | 32.5hPa | 0V | 00:00:00 | 00:00:00 | 00:00:00 | |
| SP4MAZ | 2026-09-05 00:29:24 | 52.41534 | 22.66848 | 75° | 26km/h | 23811m | 8.5m/s | -53.5°C | 1.1% | 32.7hPa | 0V | 00:00:00 | 00:00:00 | 00:00:00 | |
| SP3WXH-11 | 2026-09-05 00:28:59 | 52.41533 | 22.66565 | 62° | 38km/h | 23622m | 9.9m/s | -54.3°C | 1.2% | 33.5hPa | 0V | 00:00:00 | 00:00:00 | 00:00:00 | |
| SP4MAZ | 2026-09-05 00:28:39 | 52.41473 | 22.66358 | 61° | 31km/h | 23451m | 5.6m/s | -54.6°C | 1.2% | 34.0hPa | 0V | 00:00:00 | 00:00:00 | 00:00:00 | |
| SP3WXH-11 | 2026-09-05 00:28:28 | 52.41427 | 22.66274 | 35° | 24km/h | 23384m | 6.8m/s | -54.4°C | 1.2% | 34.4hPa | 0V | 00:00:00 | 00:00:00 | 00:00:00 | |
| SP4MAZ | 2026-09-05 00:28:08 | 52.41352 | 22.66188 | 42° | 20km/h | 23258m | 4.9m/s | -53.5°C | 1.2% | 35.0hPa | 0V | 00:00:00 | 00:00:00 | 00:00:00 | |
| SP3WXH-11 | 2026-09-05 00:27:57 | 52.41320 | 22.66179 | 65° | 11km/h | 23188m | 5.8m/s | -53.0°C | 1.1% | 35.4hPa | 0V | 00:00:00 | 00:00:00 | 00:00:00 | |
| SP4MAZ | 2026-09-05 00:27:47 | 52.41305 | 22.66174 | 352° | 15km/h | 23137m | 6.4m/s | -52.6°C | 1.1% | 35.7hPa | 0V | 00:00:00 | 00:00:00 | 00:00:00 | |
| SP4MAZ | 2026-09-05 00:27:27 | 52.41270 | 22.66221 | 265° | 13km/h | 23015m | 5.5m/s | -52.5°C | 1.1% | 36.4hPa | 0V | 00:00:00 | 00:00:00 | 00:00:00 | |
| SP3WXH-11 | 2026-09-05 00:27:26 | 52.41272 | 22.66228 | 239° | 7km/h | 23003m | 8.6m/s | -52.5°C | 1.1% | 36.4hPa | 0V | 00:00:00 | 00:00:00 | 00:00:00 | |
| SP3WXH-11 | 2026-09-05 00:26:55 | 52.41244 | 22.66173 | 86° | 11km/h | 22813m | 2.2m/s | -52.7°C | 1.1% | 37.5hPa | 0V | 00:00:00 | 00:00:00 | 00:00:00 | |
| SP4MAZ | 2026-09-05 00:26:37 | 52.41191 | 22.66118 | 9° | 7km/h | 22738m | 5.9m/s | -52.6°C | 1.1% | 38.0hPa | 0V | 00:00:00 | 00:00:00 | 00:00:00 | |
| SP3WXH-11 | 2026-09-05 00:26:24 | 52.41162 | 22.66095 | 63° | 9km/h | 22646m | 6.3m/s | -52.8°C | 1.1% | 38.5hPa | 0V | 00:00:00 | 00:00:00 | 00:00:00 | |
| SP4MAZ | 2026-09-05 00:26:15 | 52.41166 | 22.66099 | 229° | 9km/h | 22585m | 5.2m/s | -52.6°C | 1.1% | 38.8hPa | 0V | 00:00:00 | 00:00:00 | 00:00:00 | |
| SP3WXH-11 | 2026-09-05 00:25:53 | 52.41236 | 22.66070 | 171° | 16km/h | 22464m | 5.6m/s | -52.7°C | 1.1% | 39.6hPa | 0V | 00:00:00 | 00:00:00 | 00:00:00 | |
| SP3WXH-11 | 2026-09-05 00:25:22 | 52.41369 | 22.65828 | 109° | 26km/h | 22299m | 6.4m/s | -53.0°C | 1.2% | 40.8hPa | 0V | 00:00:00 | 00:00:00 | 00:00:00 | |
| SP4MAZ | 2026-09-05 00:25:03 | 52.41399 | 22.65557 | 74° | 38km/h | 22135m | 5.7m/s | -53.1°C | 1.2% | 41.5hPa | 0V | 00:00:00 | 00:00:00 | 00:00:00 | |
| SP3WXH-11 | 2026-09-05 00:24:51 | 52.41397 | 22.65398 | 83° | 37km/h | 22087m | 5.9m/s | -53.0°C | 1.1% | 42.0hPa | 0V | 00:00:00 | 00:00:00 | 00:00:00 | |
| SP4MAZ | 2026-09-05 00:24:40 | 52.41386 | 22.65290 | 93° | 26km/h | 22046m | 6.7m/s | -53.1°C | 1.2% | 42.3hPa | 0V | 00:00:00 | 00:00:00 | 00:00:00 | |
| SP3WXH-11 | 2026-09-05 00:24:20 | 52.41404 | 22.65091 | 114° | 27km/h | 21940m | 6.9m/s | -53.0°C | 1.2% | 43.1hPa | 0V | 00:00:00 | 00:00:00 | 00:00:00 | |
| SP3WXH-11 | 2026-09-05 00:23:49 | 52.41484 | 22.64709 | 99° | 27km/h | 21744m | 6.7m/s | -52.8°C | 1.2% | 44.4hPa | 0V | 00:00:00 | 00:00:00 | 00:00:00 | |
| SP3WXH-11 | 2026-09-05 00:23:18 | 52.41462 | 22.64380 | 51° | 24km/h | 21560m | 4.7m/s | -53.6°C | 1.2% | 45.6hPa | 0V | 00:00:00 | 00:00:00 | 00:00:00 | |
| SP4MAZ | 2026-09-05 00:23:08 | 52.41462 | 22.64322 | 127° | 20km/h | 21515m | 5.4m/s | -53.4°C | 1.2% | 45.9hPa | 0V | 00:00:00 | 00:00:00 | 00:00:00 | |
| SP3WXH-11 | 2026-09-05 00:22:47 | 52.41492 | 22.64112 | 108° | 31km/h | 21384m | 5.0m/s | -53.1°C | 1.2% | 46.8hPa | 0V | 00:00:00 | 00:00:00 | 00:00:00 | |
| SP3WXH-11 | 2026-09-05 00:22:16 | 52.41588 | 22.63630 | 100° | 42km/h | 21215m | 6.4m/s | -53.0°C | 1.2% | 48.1hPa | 0V | 00:00:00 | 00:00:00 | 00:00:00 | |
| SP4MAZ | 2026-09-05 00:22:00 | 52.41596 | 22.63383 | 90° | 46km/h | 21135m | 5.3m/s | -52.6°C | 1.2% | 48.7hPa | 0V | 00:00:00 | 00:00:00 | 00:00:00 | |
| SP3WXH-11 | 2026-09-05 00:21:45 | 52.41617 | 22.63103 | 77° | 42km/h | 21042m | 4.7m/s | -53.2°C | 1.2% | 49.4hPa | 0V | 00:00:00 | 00:00:00 | 00:00:00 | |
| SP4MAZ | 2026-09-05 00:21:39 | 52.41611 | 22.63036 | 83° | 35km/h | 21022m | 6.8m/s | -53.4°C | 1.2% | 49.6hPa | 0V | 00:00:00 | 00:00:00 | 00:00:00 | |
| SP4MAZ | 2026-09-05 00:21:17 | 52.41560 | 22.62723 | 71° | 37km/h | 20899m | 5.1m/s | -53.0°C | 1.2% | 50.5hPa | 0V | 00:00:00 | 00:00:00 | 00:00:00 | |
| SP3WXH-11 | 2026-09-05 00:21:14 | 52.41545 | 22.62649 | 76° | 35km/h | 20868m | 5.9m/s | -53.1°C | 1.2% | 50.8hPa | 0V | 00:00:00 | 00:00:00 | 00:00:00 | |
| SP4MAZ | 2026-09-05 00:20:56 | 52.41502 | 22.62476 | 86° | 26km/h | 20780m | 5.5m/s | -53.1°C | 1.2% | 51.5hPa | 0V | 00:00:00 | 00:00:00 | 00:00:00 | |
| SP3WXH-11 | 2026-09-05 00:20:43 | 52.41466 | 22.62363 | 64° | 13km/h | 20691m | 6.5m/s | -52.7°C | 1.2% | 52.1hPa | 0V | 00:00:00 | 00:00:00 | 00:00:00 | |
| SP3WXH-11 | 2026-09-05 00:20:12 | 52.41456 | 22.62177 | 103° | 22km/h | 20509m | 6.4m/s | -52.5°C | 1.2% | 53.6hPa | 0V | 00:00:00 | 00:00:00 | 00:00:00 | |
| SP4MAZ | 2026-09-05 00:19:49 | 52.41477 | 22.61974 | 90° | 26km/h | 20394m | 7.0m/s | -52.2°C | 1.2% | 54.6hPa | 0V | 00:00:00 | 00:00:00 | 00:00:00 | |
| SP3WXH-11 | 2026-09-05 00:19:41 | 52.41471 | 22.61866 | 93° | 31km/h | 20339m | 4.6m/s | -52.1°C | 1.2% | 55.0hPa | 0V | 00:00:00 | 00:00:00 | 00:00:00 | |
| SP4MAZ | 2026-09-05 00:19:29 | 52.41463 | 22.61722 | 83° | 35km/h | 20284m | 6.8m/s | -52.4°C | 1.2% | 55.5hPa | 0V | 00:00:00 | 00:00:00 | 00:00:00 | |
| SP3WXH-11 | 2026-09-05 00:19:09 | 52.41433 | 22.61366 | 69° | 35km/h | 20162m | 4.6m/s | -53.1°C | 1.3% | 56.5hPa | 0V | 00:00:00 | 00:00:00 | 00:00:00 | |
| SP4MAZ | 2026-09-05 00:19:06 | 52.41424 | 22.61342 | 71° | 29km/h | 20151m | 5.9m/s | -53.1°C | 1.3% | 56.6hPa | 0V | 00:00:00 | 00:00:00 | 00:00:00 | |
| SP3WXH-11 | 2026-09-05 00:18:39 | 52.41348 | 22.61015 | 67° | 15km/h | 20004m | 5.8m/s | -52.6°C | 1.2% | 58.0hPa | 0V | 00:00:00 | 00:00:00 | 00:00:00 | |
| SP4MAZ | 2026-09-05 00:18:16 | 52.41349 | 22.60835 | 106° | 22km/h | 19884m | 5.0m/s | -53.5°C | 1.3% | 59.1hPa | 0V | 00:00:00 | 00:00:00 | 00:00:00 | |
| SP3WXH-11 | 2026-09-05 00:18:07 | 52.41364 | 22.60737 | 98° | 29km/h | 19832m | 5.8m/s | -53.6°C | 1.3% | 59.6hPa | 0V | 00:00:00 | 00:00:00 | 00:00:00 | |
| SP4MAZ | 2026-09-05 00:17:54 | 52.41373 | 22.60600 | 84° | 37km/h | 19766m | 6.3m/s | -53.3°C | 1.3% | 60.2hPa | 0V | 00:00:00 | 00:00:00 | 00:00:00 | |
| SP3WXH-11 | 2026-09-05 00:17:36 | 52.41359 | 22.60380 | 86° | 26km/h | 19663m | 4.5m/s | -53.3°C | 1.3% | 61.1hPa | 0V | 00:00:00 | 00:00:00 | 00:00:00 | |
| SP4MAZ | 2026-09-05 00:17:34 | 52.41360 | 22.60370 | 96° | 24km/h | 19659m | 4.4m/s | -53.3°C | 1.3% | 61.2hPa | 0V | 00:00:00 | 00:00:00 | 00:00:00 | |
| SP3WXH-11 | 2026-09-05 00:17:05 | 52.41350 | 22.60120 | 101° | 16km/h | 19497m | 4.8m/s | -52.6°C | 1.2% | 62.7hPa | 0V | 00:00:00 | 00:00:00 | 00:00:00 | |
| SP4MAZ | 2026-09-05 00:16:47 | 52.41354 | 22.59997 | 85° | 22km/h | 19412m | 3.5m/s | -52.7°C | 1.3% | 63.6hPa | 0V | 00:00:00 | 00:00:00 | 00:00:00 | |
| SP3WXH-11 | 2026-09-05 00:16:34 | 52.41360 | 22.59890 | 69° | 24km/h | 19340m | 4.0m/s | -52.7°C | 1.2% | 64.2hPa | 0V | 00:00:00 | 00:00:00 | 00:00:00 | |
| SP4MAZ | 2026-09-05 00:16:26 | 52.41357 | 22.59821 | 108° | 26km/h | 19303m | 4.8m/s | -52.7°C | 1.2% | 64.6hPa | 0V | 00:00:00 | 00:00:00 | 00:00:00 | |
| SP4MAZ | 2026-09-05 00:16:04 | 52.41439 | 22.59528 | 128° | 44km/h | 19190m | 4.9m/s | -53.0°C | 1.3% | 65.7hPa | 0V | 00:00:00 | 00:00:00 | 00:00:00 | |
| SP3WXH-11 | 2026-09-05 00:16:03 | 52.41451 | 22.59499 | 119° | 38km/h | 19179m | 3.6m/s | -53.0°C | 1.3% | 65.8hPa | 0V | 00:00:00 | 00:00:00 | 00:00:00 | |
| SP3WXH-11 | 2026-09-05 00:15:32 | 52.41583 | 22.58876 | 110° | 55km/h | 19025m | 3.9m/s | -53.2°C | 1.3% | 67.5hPa | 0V | 00:00:00 | 00:00:00 | 00:00:00 | |
| SP4MAZ | 2026-09-05 00:15:16 | 52.41612 | 22.58563 | 95° | 44km/h | 18944m | 5.4m/s | -52.8°C | 1.3% | 68.3hPa | 0V | 00:00:00 | 00:00:00 | 00:00:00 | |
| SP3WXH-11 | 2026-09-05 00:15:01 | 52.41625 | 22.58314 | 99° | 33km/h | 18866m | 5.0m/s | -52.9°C | 1.3% | 69.1hPa | 0V | 00:00:00 | 00:00:00 | 00:00:00 | |
| SP4MAZ | 2026-09-05 00:14:55 | 52.41631 | 22.58244 | 106° | 35km/h | 18841m | 4.3m/s | -52.8°C | 1.3% | 69.5hPa | 0V | 00:00:00 | 00:00:00 | 00:00:00 | |
| SP4MAZ | 2026-09-05 00:14:33 | 52.41699 | 22.57929 | 119° | 46km/h | 18737m | 5.8m/s | -53.0°C | 1.3% | 70.7hPa | 0V | 00:00:00 | 00:00:00 | 00:00:00 | |
| SP3WXH-11 | 2026-09-05 00:14:30 | 52.41717 | 22.57862 | 117° | 40km/h | 18715m | 4.0m/s | -53.4°C | 1.4% | 70.8hPa | 0V | 00:00:00 | 00:00:00 | 00:00:00 | |
| SP4MAZ | 2026-09-05 00:14:13 | 52.41814 | 22.57578 | 110° | 44km/h | 18635m | 6.6m/s | -53.3°C | 1.3% | 71.7hPa | 0V | 00:00:00 | 00:00:00 | 00:00:00 | |
| SP3WXH-11 | 2026-09-05 00:13:59 | 52.41862 | 22.57297 | 106° | 44km/h | 18558m | 4.4m/s | -53.8°C | 1.4% | 72.6hPa | 0V | 00:00:00 | 00:00:00 | 00:00:00 | |
| SP4MAZ | 2026-09-05 00:13:53 | 52.41875 | 22.57213 | 92° | 51km/h | 18532m | 5.7m/s | -53.8°C | 1.4% | 72.9hPa | 0V | 00:00:00 | 00:00:00 | 00:00:00 | |
| SP3WXH-11 | 2026-09-05 00:13:28 | 52.41892 | 22.56618 | 97° | 58km/h | 18398m | 5.1m/s | -54.4°C | 1.4% | 74.4hPa | 0V | 00:00:00 | 00:00:00 | 00:00:00 | |
| SP4MAZ | 2026-09-05 00:13:02 | 52.41912 | 22.55910 | 89° | 80km/h | 18270m | 6.3m/s | -54.7°C | 1.5% | 76.0hPa | 0V | 00:00:00 | 00:00:00 | 00:00:00 | |
| SP3WXH-11 | 2026-09-05 00:12:57 | 52.41909 | 22.55710 | 89° | 78km/h | 18239m | 5.4m/s | -54.6°C | 1.5% | 76.3hPa | 0V | 00:00:00 | 00:00:00 | 00:00:00 | |
| SP4MAZ | 2026-09-05 00:12:42 | 52.41882 | 22.55282 | 84° | 69km/h | 18157m | 5.9m/s | -54.5°C | 1.5% | 77.2hPa | 0V | 00:00:00 | 00:00:00 | 00:00:00 | |
| SP3WXH-11 | 2026-09-05 00:12:26 | 52.41829 | 22.54799 | 81° | 68km/h | 18063m | 4.3m/s | -54.4°C | 1.4% | 78.3hPa | 0V | 00:00:00 | 00:00:00 | 00:00:00 | |
| SP4MAZ | 2026-09-05 00:12:20 | 52.41816 | 22.54664 | 80° | 62km/h | 18036m | 5.7m/s | -54.4°C | 1.5% | 78.6hPa | 0V | 00:00:00 | 00:00:00 | 00:00:00 | |
| SP3WXH-11 | 2026-09-05 00:11:55 | 52.41731 | 22.54072 | 77° | 55km/h | 17901m | 4.6m/s | -54.0°C | 1.5% | 80.3hPa | 0V | 00:00:00 | 00:00:00 | 00:00:00 | |
| SP4MAZ | 2026-09-05 00:11:40 | 52.41693 | 22.53808 | 73° | 51km/h | 17825m | 4.4m/s | -53.5°C | 1.5% | 81.2hPa | 0V | 00:00:00 | 00:00:00 | 00:00:00 | |
| SP3WXH-11 | 2026-09-05 00:11:24 | 52.41665 | 22.53486 | 79° | 44km/h | 17737m | 5.0m/s | -53.8°C | 1.5% | 82.4hPa | 0V | 00:00:00 | 00:00:00 | 00:00:00 | |
| SP4MAZ | 2026-09-05 00:11:19 | 52.41659 | 22.53414 | 84° | 47km/h | 17713m | 5.2m/s | -53.8°C | 1.5% | 82.7hPa | 0V | 00:00:00 | 00:00:00 | 00:00:00 | |
| SP3WXH-11 | 2026-09-05 00:10:53 | 52.41649 | 22.52881 | 83° | 49km/h | 17564m | 4.5m/s | -53.9°C | 1.5% | 84.6hPa | 0V | 00:00:00 | 00:00:00 | 00:00:00 | |
| SP4MAZ | 2026-09-05 00:10:38 | 52.41636 | 22.52599 | 87° | 42km/h | 17491m | 6.0m/s | -53.8°C | 1.5% | 85.6hPa | 0V | 00:00:00 | 00:00:00 | 00:00:00 | |
| SP3WXH-11 | 2026-09-05 00:10:22 | 52.41625 | 22.52270 | 96° | 55km/h | 17395m | 6.8m/s | -54.1°C | 1.5% | 86.9hPa | 0V | 00:00:00 | 00:00:00 | 00:00:00 | |
| SP4MAZ | 2026-09-05 00:10:18 | 52.41632 | 22.52201 | 105° | 55km/h | 17377m | 5.1m/s | -54.3°C | 1.5% | 87.1hPa | 0V | 00:00:00 | 00:00:00 | 00:00:00 | |
| SP3WXH-11 | 2026-09-05 00:09:51 | 52.41649 | 22.51621 | 101° | 46km/h | 17217m | 6.3m/s | -54.1°C | 1.6% | 89.3hPa | 0V | 00:00:00 | 00:00:00 | 00:00:00 | |
| SP4MAZ | 2026-09-05 00:09:36 | 52.41683 | 22.51321 | 106° | 53km/h | 17146m | 4.3m/s | -54.1°C | 1.6% | 90.3hPa | 0V | 00:00:00 | 00:00:00 | 00:00:00 | |
| SP3WXH-11 | 2026-09-05 00:09:20 | 52.41744 | 22.50890 | 102° | 69km/h | 17056m | 5.4m/s | -54.2°C | 1.6% | 91.6hPa | 0V | 00:00:00 | 00:00:00 | 00:00:00 | |
| SP4MAZ | 2026-09-05 00:09:06 | 52.41780 | 22.50510 | 96° | 80km/h | 16987m | 4.6m/s | -54.0°C | 1.6% | 92.6hPa | 0V | 00:00:00 | 00:00:00 | 00:00:00 | |
| SP3WXH-11 | 2026-09-05 00:08:49 | 52.41785 | 22.49959 | 90° | 73km/h | 16891m | 4.0m/s | -53.9°C | 1.6% | 93.9hPa | 0V | 00:00:00 | 00:00:00 | 00:00:00 | |
| SP4MAZ | 2026-09-05 00:08:43 | 52.41786 | 22.49795 | 94° | 78km/h | 16869m | 4.3m/s | -53.8°C | 1.6% | 94.3hPa | 0V | 00:00:00 | 00:00:00 | 00:00:00 | |
| SP4MAZ | 2026-09-05 00:08:22 | 52.41725 | 22.49182 | 82° | 71km/h | 16769m | 4.0m/s | -53.1°C | 1.6% | 95.8hPa | 0V | 00:00:00 | 00:00:00 | 00:00:00 | |
| SP3WXH-11 | 2026-09-05 00:08:18 | 52.41717 | 22.49046 | 80° | 60km/h | 16746m | 4.3m/s | -52.9°C | 1.6% | 96.2hPa | 0V | 00:00:00 | 00:00:00 | 00:00:00 | |
| SP3WXH-11 | 2026-09-05 00:07:47 | 52.41599 | 22.48324 | 66° | 51km/h | 16587m | 4.3m/s | -52.2°C | 1.6% | 98.5hPa | 0V | 00:00:00 | 00:00:00 | 00:00:00 | |
| SP4MAZ | 2026-09-05 00:07:40 | 52.41564 | 22.48203 | 70° | 58km/h | 16555m | 5.9m/s | -52.3°C | 1.6% | 99.0hPa | 0V | 00:00:00 | 00:00:00 | 00:00:00 | |
| SP3WXH-11 | 2026-09-05 00:07:16 | 52.41506 | 22.47643 | 82° | 60km/h | 16433m | 4.6m/s | -53.1°C | 1.7% | 100.9hPa | 0V | 00:00:00 | 00:00:00 | 00:00:00 | |
| SP4MAZ | 2026-09-05 00:07:09 | 52.41505 | 22.47490 | 97° | 66km/h | 16404m | 5.1m/s | -53.1°C | 1.6% | 101.4hPa | 0V | 00:00:00 | 00:00:00 | 00:00:00 | |
| SP3WXH-11 | 2026-09-05 00:06:45 | 52.41495 | 22.46863 | 87° | 53km/h | 16268m | 4.8m/s | -52.6°C | 1.7% | 103.5hPa | 0V | 00:00:00 | 00:00:00 | 00:00:00 | |
| SP3WXH-11 | 2026-09-05 00:06:14 | 52.41474 | 22.46117 | 91° | 62km/h | 16120m | 5.2m/s | -53.7°C | 1.8% | 105.9hPa | 0V | 00:00:00 | 00:00:00 | 00:00:00 | |
| SP3WXH-11 | 2026-09-05 00:05:43 | 52.41438 | 22.45240 | 91° | 66km/h | 15953m | 1.1m/s | -53.3°C | 1.8% | 108.4hPa | 0V | 00:00:00 | 00:00:00 | 00:00:00 | |
| SP4MAZ | 2026-09-05 00:05:13 | 52.41421 | 22.44429 | 88° | 73km/h | 15829m | 5.6m/s | -52.9°C | 1.8% | 110.8hPa | 0V | 00:00:00 | 00:00:00 | 00:00:00 | |
| SP3WXH-11 | 2026-09-05 00:05:12 | 52.41416 | 22.44342 | 84° | 69km/h | 15813m | 5.2m/s | -52.8°C | 1.8% | 111.0hPa | 0V | 00:00:00 | 00:00:00 | 00:00:00 | |
| SP4MAZ | 2026-09-05 00:04:51 | 52.41388 | 22.43805 | 87° | 73km/h | 15723m | 3.3m/s | -52.8°C | 1.8% | 112.6hPa | 0V | 00:00:00 | 00:00:00 | 00:00:00 | |
| SP3WXH-11 | 2026-09-05 00:04:41 | 52.41357 | 22.43472 | 79° | 68km/h | 15669m | 4.9m/s | -53.0°C | 1.8% | 113.6hPa | 0V | 00:00:00 | 00:00:00 | 00:00:00 | |
| SP4MAZ | 2026-09-05 00:04:11 | 52.41301 | 22.42747 | 92° | 60km/h | 15526m | 5.6m/s | -53.1°C | 2.0% | 116.1hPa | 0V | 00:00:00 | 00:00:00 | 00:00:00 | |
| SP3WXH-11 | 2026-09-05 00:04:10 | 52.41303 | 22.42696 | 93° | 62km/h | 15516m | 4.6m/s | -53.1°C | 2.0% | 116.3hPa | 0V | 00:00:00 | 00:00:00 | 00:00:00 | |
| SP4MAZ | 2026-09-05 00:03:50 | 52.41339 | 22.42249 | 100° | 58km/h | 15427m | 3.8m/s | -52.9°C | 2.0% | 117.9hPa | 0V | 00:00:00 | 00:00:00 | 00:00:00 | |
| SP3WXH-11 | 2026-09-05 00:03:39 | 52.41380 | 22.41905 | 99° | 69km/h | 15358m | 6.4m/s | -53.6°C | 2.2% | 119.2hPa | 0V | 00:00:00 | 00:00:00 | 00:00:00 | |
| SP4MAZ | 2026-09-05 00:03:21 | 52.41500 | 22.41419 | 111° | 78km/h | 15252m | 6.4m/s | -53.5°C | 2.2% | 121.2hPa | 0V | 00:00:00 | 00:00:00 | 00:00:00 | |
| SP3WXH-11 | 2026-09-05 00:03:08 | 52.41608 | 22.40876 | 100° | 95km/h | 15171m | 5.1m/s | -54.6°C | 2.3% | 122.8hPa | 0V | 00:00:00 | 00:00:00 | 00:00:00 | |
| SP3WXH-11 | 2026-09-05 00:02:40 | 52.41699 | 22.39616 | 92° | 99km/h | 15013m | 5.8m/s | -55.2°C | 2.5% | 125.7hPa | 0V | 00:00:00 | 00:00:00 | 00:00:00 | |
| SP4MAZ | 2026-09-05 00:02:28 | 52.41708 | 22.39285 | 94° | 97km/h | 14972m | 4.3m/s | -55.6°C | 2.6% | 126.5hPa | 0V | 00:00:00 | 00:00:00 | 00:00:00 | |
| SP4MAZ | 2026-09-05 00:02:12 | 52.41711 | 22.38469 | 88° | 97km/h | 14876m | 5.4m/s | -55.9°C | 2.7% | 128.4hPa | 0V | 00:00:00 | 00:00:00 | 00:00:00 | |
| SP3WXH-11 | 2026-09-05 00:02:10 | 52.41707 | 22.38349 | 87° | 99km/h | 14862m | 5.2m/s | -55.8°C | 2.7% | 128.7hPa | 0V | 00:00:00 | 00:00:00 | 00:00:00 | |
| SP4MAZ | 2026-09-05 00:01:45 | 52.41684 | 22.37519 | 89° | 93km/h | 14765m | 3.9m/s | -55.2°C | 2.7% | 130.8hPa | 0V | 00:00:00 | 00:00:00 | 00:00:00 | |
| SP3WXH-11 | 2026-09-05 00:01:38 | 52.41674 | 22.37063 | 87° | 86km/h | 14703m | 4.6m/s | -54.9°C | 2.6% | 132.0hPa | 0V | 00:00:00 | 00:00:00 | 00:00:00 | |
| SP4MAZ | 2026-09-05 00:01:15 | 52.41645 | 22.36360 | 101° | 86km/h | 14576m | -3.6m/s | -55.3°C | 2.7% | 133.9hPa | 0V | 00:00:00 | 00:00:00 | 00:00:00 | |
| SP3WXH-11 | 2026-09-05 00:01:05 | 52.41669 | 22.36009 | 89° | 84km/h | 14564m | 4.2m/s | -55.2°C | 2.7% | 134.9hPa | 0V | 00:00:00 | 00:00:00 | 00:00:00 | |
| SP4MAZ | 2026-09-05 00:00:51 | 52.41676 | 22.35599 | 95° | 78km/h | 14507m | 4.4m/s | -55.2°C | 2.8% | 136.0hPa | 0V | 00:00:00 | 00:00:00 | 00:00:00 | |
| SP3WXH-11 | 2026-09-05 00:00:36 | 52.41724 | 22.34939 | 100° | 86km/h | 14418m | 4.1m/s | -54.8°C | 2.8% | 137.9hPa | 0V | 00:00:00 | 00:00:00 | 00:00:00 | |
| SP4MAZ | 2026-09-05 00:00:30 | 52.41731 | 22.34869 | 101° | 84km/h | 14410m | 4.7m/s | -54.7°C | 2.7% | 138.2hPa | 0V | 00:00:00 | 00:00:00 | 00:00:00 | |
| SP4MAZ | 2026-09-04 23:59:57 | 52.41861 | 22.33637 | 101° | 106km/h | 14261m | 4.6m/s | -55.2°C | 3.1% | 141.4hPa | 0V | 00:00:00 | 00:00:00 | 00:00:00 | |
| SP4MAZ | 2026-09-04 23:59:37 | 52.41932 | 22.32732 | 95° | 108km/h | 14173m | 6.0m/s | -55.4°C | 3.4% | 143.5hPa | 0V | 00:00:00 | 00:00:00 | 00:00:00 | |
| SP3WXH-11 | 2026-09-04 23:59:30 | 52.41946 | 22.32381 | 91° | 108km/h | 14135m | 4.1m/s | -55.8°C | 3.6% | 144.4hPa | 0V | 00:00:00 | 00:00:00 | 00:00:00 | |
| SP4MAZ | 2026-09-04 23:59:17 | 52.41949 | 22.31843 | 92° | 97km/h | 14076m | 5.1m/s | -56.2°C | 3.7% | 145.8hPa | 0V | 00:00:00 | 00:00:00 | 00:00:00 | |
| SP3WXH-11 | 2026-09-04 23:58:59 | 52.41974 | 22.31080 | 95° | 100km/h | 13982m | 4.5m/s | -56.4°C | 4.3% | 147.8hPa | 0V | 00:00:00 | 00:00:00 | 00:00:00 | |
| SP4MAZ | 2026-09-04 23:58:54 | 52.41983 | 22.30868 | 94° | 104km/h | 13954m | 6.0m/s | -56.3°C | 4.3% | 148.4hPa | 0V | 00:00:00 | 00:00:00 | 00:00:00 | |
| SP4MAZ | 2026-09-04 23:58:32 | 52.42030 | 22.29980 | 101° | 104km/h | 13859m | 5.0m/s | -57.0°C | 5.2% | 150.7hPa | 0V | 00:00:00 | 00:00:00 | 00:00:00 | |
| SP3WXH-11 | 2026-09-04 23:58:28 | 52.42047 | 22.29748 | 94° | 117km/h | 13828m | 7.1m/s | -57.1°C | 5.5% | 151.3hPa | 0V | 00:00:00 | 00:00:00 | 00:00:00 | |
| SP3WXH-11 | 2026-09-04 23:57:57 | 52.42134 | 22.28085 | 93° | 141km/h | 13618m | 9.3m/s | -58.2°C | 7.6% | 156.8hPa | 0V | 00:00:00 | 00:00:00 | 00:00:00 | |
| SP4MAZ | 2026-09-04 23:57:40 | 52.42123 | 22.27182 | 90° | 128km/h | 13500m | 6.8m/s | -57.5°C | 8.8% | 159.6hPa | 0V | 00:00:00 | 00:00:00 | 00:00:00 | |
| SP3WXH-11 | 2026-09-04 23:57:26 | 52.42121 | 22.26352 | 88° | 135km/h | 13402m | 5.1m/s | -57.4°C | 11.3% | 162.3hPa | 0V | 00:00:00 | 00:00:00 | 00:00:00 | |
| SP4MAZ | 2026-09-04 23:57:17 | 52.42113 | 22.25934 | 86° | 128km/h | 13359m | 5.1m/s | -57.4°C | 12.5% | 163.4hPa | 0V | 00:00:00 | 00:00:00 | 00:00:00 | |
| SP3WXH-11 | 2026-09-04 23:56:55 | 52.42165 | 22.24460 | 98° | 137km/h | 13208m | 6.7m/s | -61.3°C | 23.7% | 167.2hPa | 0V | 00:00:00 | 00:00:00 | 00:00:00 | |
| SP4MAZ | 2026-09-04 23:56:26 | 52.42244 | 22.23029 | 94° | 146km/h | 13091m | 4.9m/s | -61.4°C | 27.4% | 170.3hPa | 0V | 00:00:00 | 00:00:00 | 00:00:00 | |
| SP3WXH-11 | 2026-09-04 23:56:24 | 52.42281 | 22.22175 | 93° | 150km/h | 13027m | 6.1m/s | -61.1°C | 28.1% | 172.2hPa | 0V | 00:00:00 | 00:00:00 | 00:00:00 | |
| SP4MAZ | 2026-09-04 23:56:06 | 52.42294 | 22.21799 | 93° | 144km/h | 13000m | 3.8m/s | -61.0°C | 29.7% | 172.9hPa | 0V | 00:00:00 | 00:00:00 | 00:00:00 | |
| SP3WXH-11 | 2026-09-04 23:55:53 | 52.42297 | 22.20956 | 91° | 146km/h | 12930m | 5.8m/s | -61.3°C | 32.1% | 174.7hPa | 0V | 00:00:00 | 00:00:00 | 00:00:00 | |
| SP4MAZ | 2026-09-04 23:55:43 | 52.42287 | 22.20400 | 91° | 150km/h | 12892m | 5.3m/s | -61.3°C | 32.8% | 175.8hPa | 0V | 00:00:00 | 00:00:00 | 00:00:00 | |
| SP3WXH-11 | 2026-09-04 23:55:22 | 52.42278 | 22.18977 | 91° | 159km/h | 12790m | 4.0m/s | -61.0°C | 35.2% | 178.7hPa | 0V | 00:00:00 | 00:00:00 | 00:00:00 | |
| SP4MAZ | 2026-09-04 23:55:11 | 52.42279 | 22.18314 | 90° | 162km/h | 12749m | 4.1m/s | -61.1°C | 39.4% | 180.0hPa | 0V | 00:00:00 | 00:00:00 | 00:00:00 | |
| SP3WXH-11 | 2026-09-04 23:54:51 | 52.42255 | 22.16894 | 87° | 172km/h | 12659m | 9.5m/s | -61.7°C | 46.0% | 182.7hPa | 0V | 00:00:00 | 00:00:00 | 00:00:00 | |
| SP4MAZ | 2026-09-04 23:54:30 | 52.42219 | 22.15510 | 88° | 164km/h | 12563m | 4.2m/s | -61.6°C | 52.5% | 185.4hPa | 0V | 00:00:00 | 00:00:00 | 00:00:00 | |
| SP4MAZ | 2026-09-04 23:54:09 | 52.42183 | 22.14050 | 90° | 161km/h | 12465m | 7.9m/s | -61.4°C | 54.2% | 188.3hPa | 0V | 00:00:00 | 00:00:00 | 00:00:00 | |
| SP3WXH-11 | 2026-09-04 23:53:49 | 52.42096 | 22.12597 | 79° | 168km/h | 12314m | 5.9m/s | -60.6°C | -1.0% | -1.0hPa | 0V | 00:00:00 | 00:00:00 | 00:00:00 | |
| SP4MAZ | 2026-09-04 23:53:48 | 52.42088 | 22.12527 | 80° | 173km/h | 12309m | 6.1m/s | -60.5°C | 55.9% | 193.0hPa | 0V | 00:00:00 | 00:00:00 | 00:00:00 | |
| SP4MAZ | 2026-09-04 23:53:27 | 52.41924 | 22.11176 | 80° | 161km/h | 12191m | 4.5m/s | -59.6°C | 53.0% | 196.8hPa | 0V | 00:00:00 | 00:00:00 | 00:00:00 | |
| SP4MAZ | 2026-09-04 23:53:07 | 52.41743 | 22.09875 | 78° | 161km/h | 12096m | 4.0m/s | -58.7°C | 50.6% | 199.7hPa | 0V | 00:00:00 | 00:00:00 | 00:00:00 | |
| SP4MAZ | 2026-09-04 23:52:47 | 52.41575 | 22.08566 | 79° | 159km/h | 11991m | 6.0m/s | -57.9°C | 49.7% | 203.1hPa | 0V | 00:00:00 | 00:00:00 | 00:00:00 | |
| SP4MAZ | 2026-09-04 23:52:17 | 52.41314 | 22.06612 | 78° | 162km/h | 11834m | 4.5m/s | -56.7°C | 51.4% | 208.3hPa | 0V | 00:00:00 | 00:00:00 | 00:00:00 | |
| SP4MAZ | 2026-09-04 23:51:57 | 52.41157 | 22.05325 | 80° | 157km/h | 11738m | 3.6m/s | -56.0°C | 48.1% | 211.4hPa | 0V | 00:00:00 | 00:00:00 | 00:00:00 | |
| SP4MAZ | 2026-09-04 23:51:36 | 52.40979 | 22.03979 | 81° | 162km/h | 11644m | 3.6m/s | -55.5°C | 55.5% | 214.6hPa | 0V | 00:00:00 | 00:00:00 | 00:00:00 | |
| SP4MAZ | 2026-09-04 23:51:13 | 52.40830 | 22.02506 | 82° | 159km/h | 11536m | 4.1m/s | -54.8°C | 59.2% | 218.1hPa | 0V | 00:00:00 | 00:00:00 | 00:00:00 | |
| SP4MAZ | 2026-09-04 23:50:53 | 52.40710 | 22.01220 | 83° | 155km/h | 11446m | 2.8m/s | -54.0°C | 58.9% | 221.2hPa | 0V | 00:00:00 | 00:00:00 | 00:00:00 | |
| SP4MAZ | 2026-09-04 23:50:32 | 52.40606 | 21.99859 | 83° | 151km/h | 11353m | 4.7m/s | -53.2°C | 56.1% | 224.4hPa | 0V | 00:00:00 | 00:00:00 | 00:00:00 | |
| SP4MAZ | 2026-09-04 23:50:02 | 52.40456 | 21.97919 | 84° | 159km/h | 11217m | 3.5m/s | -52.0°C | 57.0% | 229.2hPa | 0V | 00:00:00 | 00:00:00 | 00:00:00 | |
| SP4MAZ | 2026-09-04 23:49:42 | 52.40342 | 21.96533 | 84° | 161km/h | 11123m | 3.2m/s | -51.3°C | 58.9% | 232.6hPa | 0V | 00:00:00 | 00:00:00 | 00:00:00 | |
| SP4MAZ | 2026-09-04 23:49:19 | 52.40234 | 21.95077 | 85° | 164km/h | 11025m | 3.5m/s | -50.5°C | 64.8% | 236.2hPa | 0V | 00:00:00 | 00:00:00 | 00:00:00 | |
| SP4MAZ | 2026-09-04 23:48:59 | 52.40162 | 21.93770 | 83° | 155km/h | 10929m | 4.9m/s | -49.8°C | 63.1% | 239.5hPa | 0V | 00:00:00 | 00:00:00 | 00:00:00 | |
| SP4MAZ | 2026-09-04 23:48:28 | 52.40031 | 21.91767 | 85° | 159km/h | 10778m | 5.1m/s | -48.5°C | 62.1% | 245.1hPa | 0V | 00:00:00 | 00:00:00 | 00:00:00 | |
| SP4MAZ | 2026-09-04 23:48:08 | 52.39967 | 21.90496 | 84° | 148km/h | 10686m | 5.6m/s | -47.8°C | 62.7% | 248.5hPa | 0V | 00:00:00 | 00:00:00 | 00:00:00 | |
| SP4MAZ | 2026-09-04 23:47:48 | 52.39937 | 21.89204 | 86° | 150km/h | 10580m | 4.1m/s | -46.8°C | 66.5% | 252.6hPa | 0V | 00:00:00 | 00:00:00 | 00:00:00 | |
| SP4MAZ | 2026-09-04 23:47:25 | 52.39898 | 21.87720 | 84° | 146km/h | 10444m | 4.3m/s | -45.5°C | 66.4% | 257.7hPa | 0V | 00:00:00 | 00:00:00 | 00:00:00 | |
| SP4MAZ | 2026-09-04 23:47:05 | 52.39853 | 21.86469 | 84° | 162km/h | 10315m | 5.7m/s | -44.3°C | 67.1% | 262.8hPa | 0V | 00:00:00 | 00:00:00 | 00:00:00 | |
| SP4MAZ | 2026-09-04 23:46:35 | 52.39747 | 21.84497 | 86° | 164km/h | 10143m | 7.1m/s | -43.0°C | 65.4% | 269.7hPa | 0V | 00:00:00 | 00:00:00 | 00:00:00 | |
| SP4MAZ | 2026-09-04 23:46:14 | 52.39655 | 21.83231 | 86° | 151km/h | 10020m | 5.5m/s | -42.0°C | 67.8% | 274.5hPa | 0V | 00:00:00 | 00:00:00 | 00:00:00 | |
| SP4MAZ | 2026-09-04 23:45:50 | 52.39562 | 21.81758 | 87° | 151km/h | 9879m | 6.5m/s | -40.7°C | 74.3% | 280.5hPa | 0V | 00:00:00 | 00:00:00 | 00:00:00 | |
| SP4MAZ | 2026-09-04 23:45:30 | 52.39486 | 21.80539 | 84° | 142km/h | 9752m | 5.3m/s | -39.6°C | 70.2% | 285.6hPa | 0V | 00:00:00 | 00:00:00 | 00:00:00 | |
| SP4MAZ | 2026-09-04 23:44:57 | 52.39369 | 21.78502 | 82° | 150km/h | 9571m | 5.4m/s | -37.9°C | 71.6% | 293.3hPa | 0V | 00:00:00 | 00:00:00 | 00:00:00 | |
| SP4MAZ | 2026-09-04 23:44:35 | 52.39295 | 21.77175 | 85° | 139km/h | 9438m | 5.0m/s | -36.9°C | 75.1% | 299.2hPa | 0V | 00:00:00 | 00:00:00 | 00:00:00 | |
| SP4MAZ | 2026-09-04 23:44:15 | 52.39223 | 21.75895 | 87° | 148km/h | 9304m | 7.3m/s | -35.7°C | 0% | 304.9hPa | 0V | 00:00:00 | 00:00:00 | 00:00:00 | |
| SP4MAZ | 2026-09-04 23:43:43 | 52.39111 | 21.74031 | 85° | 151km/h | 9099m | 5.8m/s | -33.8°C | 0% | 314.0hPa | 0V | 00:00:00 | 00:00:00 | 00:00:00 | |
| SP4MAZ | 2026-09-04 23:43:21 | 52.39045 | 21.72624 | 87° | 148km/h | 8952m | 6.3m/s | -32.6°C | 0% | 320.6hPa | 0V | 00:00:00 | 00:00:00 | 00:00:00 | |
| SP4MAZ | 2026-09-04 23:43:00 | 52.38994 | 21.71398 | 84° | 150km/h | 8837m | 3.5m/s | -31.7°C | 0% | 325.9hPa | 0V | 00:00:00 | 00:00:00 | 00:00:00 | |
| SP4MAZ | 2026-09-04 23:42:29 | 52.38914 | 21.69517 | 87° | 153km/h | 8646m | 6.4m/s | -29.9°C | 0% | 334.6hPa | 0V | 00:00:00 | 00:00:00 | 00:00:00 | |
| SP4MAZ | 2026-09-04 23:42:09 | 52.38876 | 21.68307 | 95° | 141km/h | 8525m | 5.6m/s | -28.7°C | 0% | 340.2hPa | 0V | 00:00:00 | 00:00:00 | 00:00:00 | |
| SP4MAZ | 2026-09-04 23:41:45 | 52.38852 | 21.66856 | 86° | 148km/h | 8388m | 4.5m/s | -27.4°C | 0% | 346.9hPa | 0V | 00:00:00 | 00:00:00 | 00:00:00 | |
| SP4MAZ | 2026-09-04 23:41:15 | 52.38822 | 21.65003 | 90° | 162km/h | 8224m | 4.0m/s | -26.3°C | 0% | 355.0hPa | 0V | 00:00:00 | 00:00:00 | 00:00:00 | |
| SP4MAZ | 2026-09-04 23:40:56 | 52.38844 | 21.63762 | 93° | 151km/h | 8111m | 5.2m/s | -25.7°C | 0% | 360.4hPa | 0V | 00:00:00 | 00:00:00 | 00:00:00 | |
| SP4MAZ | 2026-09-04 23:40:32 | 52.38903 | 21.62330 | 95° | 142km/h | 7983m | 5.1m/s | -25.4°C | 0% | 366.8hPa | 0V | 00:00:00 | 00:00:00 | 00:00:00 | |
| SP4MAZ | 2026-09-04 23:40:01 | 52.39023 | 21.60398 | 95° | 150km/h | 7817m | 8.2m/s | -24.3°C | 0% | 0hPa | 0V | 00:00:00 | 00:00:00 | 00:00:00 | |
| SP4MAZ | 2026-09-04 23:39:40 | 52.39114 | 21.59091 | 97° | 155km/h | 7699m | 6.7m/s | -23.6°C | 0% | 0hPa | 0V | 00:00:00 | 00:00:00 | 00:00:00 | |
| SP4MAZ | 2026-09-04 23:39:20 | 52.39202 | 21.57862 | 99° | 153km/h | 7603m | 6.7m/s | -23.1°C | 0% | 0hPa | 0V | 00:00:00 | 00:00:00 | 00:00:00 | |
| SP4MAZ | 2026-09-04 23:39:00 | 52.39271 | 21.56623 | 99° | 153km/h | 7493m | 3.8m/s | -22.3°C | 0% | 0hPa | 0V | 00:00:00 | 00:00:00 | 00:00:00 | |
| SP4MAZ | 2026-09-04 23:38:37 | 52.39349 | 21.55159 | 98° | 162km/h | 7367m | 5.9m/s | -21.7°C | 0% | 398.9hPa | 0V | 00:00:00 | 00:00:00 | 00:00:00 | |
| SP4MAZ | 2026-09-04 23:38:17 | 52.39355 | 21.53802 | 87° | 170km/h | 7255m | 4.6m/s | -21.0°C | 0% | 405.2hPa | 0V | 00:00:00 | 00:00:00 | 00:00:00 | |
| SP4MAZ | 2026-09-04 23:37:46 | 52.39352 | 21.51793 | 84° | 148km/h | 7064m | 5.6m/s | -20.8°C | 0% | 0hPa | 0V | 00:00:00 | 00:00:00 | 00:00:00 | |
| SP4MAZ | 2026-09-04 23:37:26 | 52.39326 | 21.50597 | 85° | 150km/h | 6954m | 5.6m/s | -20.2°C | 0% | 0hPa | 0V | 00:00:00 | 00:00:00 | 00:00:00 | |
| SP4MAZ | 2026-09-04 23:37:03 | 52.39250 | 21.49238 | 85° | 146km/h | 6833m | 3.9m/s | 0°C | 0% | 0hPa | 0V | 00:00:00 | 00:00:00 | 00:00:00 | |
| SP4MAZ | 2026-09-04 23:36:31 | 52.39166 | 21.47344 | 85° | 135km/h | 6663m | 7.3m/s | 0°C | 0% | 0hPa | 0V | 00:00:00 | 00:00:00 | 00:00:00 | |
| SP4MAZ | 2026-09-04 23:36:11 | 52.39124 | 21.46182 | 86° | 131km/h | 6554m | 6.5m/s | 0°C | 0% | 0hPa | 0V | 00:00:00 | 00:00:00 | 00:00:00 | |
| SP4MAZ | 2026-09-04 23:35:49 | 52.39052 | 21.44907 | 77° | 133km/h | 6430m | 7.8m/s | 0°C | 0% | 0hPa | 0V | 00:00:00 | 00:00:00 | 00:00:00 | |
| SP4MAZ | 2026-09-04 23:35:28 | 52.38915 | 21.43682 | 79° | 135km/h | 6310m | 5.7m/s | 0°C | 0% | 0hPa | 0V | 00:00:00 | 00:00:00 | 00:00:00 | |
| SP4MAZ | 2026-09-04 23:34:57 | 52.38676 | 21.41965 | 71° | 131km/h | 6143m | 4.6m/s | 0°C | 0% | 0hPa | 0V | 00:00:00 | 00:00:00 | 00:00:00 | |
| SP4MAZ | 2026-09-04 23:34:32 | 52.38467 | 21.40662 | 81° | 126km/h | 6005m | 4.3m/s | 0°C | 0% | 0hPa | 0V | 00:00:00 | 00:00:00 | 00:00:00 | |
| SP4MAZ | 2026-09-04 23:33:37 | 52.38277 | 21.37667 | 93° | 120km/h | 5705m | 6.3m/s | 0°C | 0% | 0hPa | 0V | 00:00:00 | 00:00:00 | 00:00:00 | |
| SP4MAZ | 2026-09-04 23:33:16 | 52.38274 | 21.36503 | 89° | 130km/h | 5570m | 6.6m/s | 0°C | 0% | 0hPa | 0V | 00:00:00 | 00:00:00 | 00:00:00 | |
| SP4MAZ | 2026-09-04 23:32:56 | 52.38267 | 21.35353 | 91° | 142km/h | 5450m | 3.5m/s | 0°C | 0% | 0hPa | 0V | 00:00:00 | 00:00:00 | 00:00:00 | |
| SP4MAZ | 2026-09-04 23:32:25 | 52.38248 | 21.33514 | 92° | 144km/h | 5267m | 5.4m/s | 0°C | 0% | 0hPa | 0V | 00:00:00 | 00:00:00 | 00:00:00 | |
| SP4MAZ | 2026-09-04 23:32:04 | 52.38243 | 21.32247 | 96° | 137km/h | 5151m | 5.7m/s | 0°C | 0% | 0hPa | 0V | 00:00:00 | 00:00:00 | 00:00:00 | |
| SP4MAZ | 2026-09-04 23:31:44 | 52.38260 | 21.31063 | 99° | 146km/h | 5042m | 5.6m/s | 0°C | 0% | 0hPa | 0V | 00:00:00 | 00:00:00 | 00:00:00 | |
| SP4MAZ | 2026-09-04 23:31:22 | 52.38278 | 21.29686 | 93° | 162km/h | 4930m | 4.6m/s | 0°C | 0% | 0hPa | 0V | 00:00:00 | 00:00:00 | 00:00:00 | |
| SP4MAZ | 2026-09-04 23:31:02 | 52.38296 | 21.28473 | 98° | 141km/h | 4819m | 5.2m/s | 0°C | 0% | 0hPa | 0V | 00:00:00 | 00:00:00 | 00:00:00 | |
| SP4MAZ | 2026-09-04 23:30:30 | 52.38331 | 21.26573 | 91° | 144km/h | 4652m | 5.1m/s | 0°C | 0% | 0hPa | 0V | 00:00:00 | 00:00:00 | 00:00:00 | |
| SP4MAZ | 2026-09-04 23:30:07 | 52.38362 | 21.25109 | 92° | 159km/h | 4541m | 4.5m/s | 0°C | 0% | 0hPa | 0V | 00:00:00 | 00:00:00 | 00:00:00 | |
| SP4MAZ | 2026-09-04 23:29:45 | 52.38416 | 21.23853 | 92° | 148km/h | 4428m | 3.9m/s | 0°C | 0% | 0hPa | 0V | 00:00:00 | 00:00:00 | 00:00:00 | |
| SP4MAZ | 2026-09-04 23:29:14 | 52.38523 | 21.22026 | 94° | 148km/h | 4270m | 5.3m/s | 0°C | 0% | 0hPa | 0V | 00:00:00 | 00:00:00 | 00:00:00 | |
| SP4MAZ | 2026-09-04 23:28:54 | 52.38612 | 21.20852 | 98° | 146km/h | 4153m | 7.3m/s | 0°C | 0% | 0hPa | 0V | 00:00:00 | 00:00:00 | 00:00:00 | |
| SP4MAZ | 2026-09-04 23:28:34 | 52.38713 | 21.19775 | 100° | 139km/h | 4040m | 5.0m/s | 0°C | 0% | 0hPa | 0V | 00:00:00 | 00:00:00 | 00:00:00 | |
| SP4MAZ | 2026-09-04 23:28:12 | 52.38815 | 21.18680 | 102° | 108km/h | 3908m | 5.2m/s | 0°C | 0% | 0hPa | 0V | 00:00:00 | 00:00:00 | 00:00:00 | |
| SP4MAZ | 2026-09-04 23:27:51 | 52.38871 | 21.17735 | 96° | 91km/h | 3792m | 4.8m/s | 0°C | 0% | 0hPa | 0V | 00:00:00 | 00:00:00 | 00:00:00 | |
| SP4MAZ | 2026-09-04 23:27:21 | 52.39011 | 21.16477 | 107° | 91km/h | 3629m | 4.0m/s | 0°C | 0% | 0hPa | 0V | 00:00:00 | 00:00:00 | 00:00:00 | |
| SP4MAZ | 2026-09-04 23:27:01 | 52.39114 | 21.15677 | 98° | 97km/h | 3521m | 7.3m/s | 0°C | 0% | 0hPa | 0V | 00:00:00 | 00:00:00 | 00:00:00 | |
| SP4MAZ | 2026-09-04 23:26:40 | 52.39186 | 21.14874 | 98° | 88km/h | 3407m | 3.7m/s | 0°C | 0% | 0hPa | 0V | 00:00:00 | 00:00:00 | 00:00:00 | |
| SP4MAZ | 2026-09-04 23:26:17 | 52.39290 | 21.13985 | 98° | 93km/h | 3278m | 4.9m/s | 0°C | 0% | 0hPa | 0V | 00:00:00 | 00:00:00 | 00:00:00 | |
| SP4MAZ | 2026-09-04 23:25:55 | 52.39354 | 21.13115 | 101° | 84km/h | 3157m | 5.2m/s | 0°C | 0% | 0hPa | 0V | 00:00:00 | 00:00:00 | 00:00:00 | |
| SP4MAZ | 2026-09-04 23:25:35 | 52.39420 | 21.12330 | 97° | 99km/h | 3047m | 4.1m/s | 0°C | 0% | 0hPa | 0V | 00:00:00 | 00:00:00 | 00:00:00 | |
| SP4MAZ | 2026-09-04 23:25:12 | 52.39547 | 21.11486 | 106° | 93km/h | 2922m | 4.8m/s | 0°C | 0% | 0hPa | 0V | 00:00:00 | 00:00:00 | 00:00:00 | |
| SP4MAZ | 2026-09-04 23:24:41 | 52.39711 | 21.10439 | 98° | 82km/h | 2759m | 4.0m/s | 0°C | 0% | 0hPa | 0V | 00:00:00 | 00:00:00 | 00:00:00 | |
| SP4MAZ | 2026-09-04 23:24:20 | 52.39820 | 21.09773 | 101° | 77km/h | 2654m | 3.8m/s | 0°C | 0% | 0hPa | 0V | 00:00:00 | 00:00:00 | 00:00:00 |